createdAt,value
2022-12-08T00:01:40.986Z,98351.63
2022-12-08T00:04:09.020Z,98349.22
2022-12-08T00:06:56.298Z,98344.19
2022-12-08T00:09:32.005Z,98346.22
2022-12-08T00:12:02.824Z,98350.06
2022-12-08T00:14:32.638Z,98353.44
2022-12-08T00:17:01.489Z,98340.63
2022-12-08T00:19:29.471Z,98341.47
2022-12-08T00:21:58.315Z,98338.34
2022-12-08T00:24:32.481Z,98328.28
2022-12-08T00:27:00.337Z,98338.22
2022-12-08T00:29:28.485Z,98327.38
2022-12-08T00:31:56.431Z,98332.59
2022-12-08T00:34:24.437Z,98331.81
2022-12-08T00:36:54.320Z,98326.38
2022-12-08T00:39:22.108Z,98326.78
2022-12-08T00:42:20.183Z,98317.94
2022-12-08T00:44:48.569Z,98324.63
2022-12-08T00:47:19.769Z,98323.16
2022-12-08T00:49:50.110Z,98321.88
2022-12-08T00:52:17.856Z,98322.78
2022-12-08T00:54:45.858Z,98317.19
2022-12-08T00:57:15.068Z,98315.81
2022-12-08T00:59:42.821Z,98314.03
2022-12-08T01:02:10.692Z,98312.84
2022-12-08T01:04:40.606Z,98321.25
2022-12-08T01:07:11.018Z,98313.56
2022-12-08T01:09:39.122Z,98307.84
2022-12-08T01:12:09.911Z,98304.75
2022-12-08T01:14:39.108Z,98310.25
2022-12-08T01:17:06.975Z,98314.13
2022-12-08T01:19:38.763Z,98313.13
2022-12-08T01:22:08.570Z,98319.38
2022-12-08T01:24:38.801Z,98317.13
2022-12-08T01:27:06.654Z,98327.09
2022-12-08T01:29:34.653Z,98326.66
2022-12-08T01:32:03.903Z,98323.91
2022-12-08T01:34:31.802Z,98322.56
2022-12-08T01:36:59.660Z,98321.47
2022-12-08T01:39:27.511Z,98322.47
2022-12-08T01:41:55.391Z,98318.69
2022-12-08T01:44:55.573Z,98311.16
2022-12-08T01:47:30.926Z,98320.22
2022-12-08T01:49:59.064Z,98311.13
2022-12-08T01:52:30.568Z,98307.06
2022-12-08T01:55:02.833Z,98301.81
2022-12-08T01:57:35.266Z,98301.69
2022-12-08T02:00:08.711Z,98303.69
2022-12-08T02:02:48.150Z,98292.13
2022-12-08T02:05:17.356Z,98297.53
2022-12-08T02:07:45.700Z,98289.88
2022-12-08T02:10:18.038Z,98284.66
2022-12-08T02:12:46.134Z,98279.63
2022-12-08T02:15:14.827Z,98277.56
2022-12-08T02:17:57.993Z,98270.06
2022-12-08T02:20:39.114Z,98268.44
2022-12-08T02:23:19.934Z,98279.09
2022-12-08T02:26:13.912Z,98268.50
2022-12-08T02:29:05.435Z,98259.69
2022-12-08T02:31:45.847Z,98274.06
2022-12-08T02:34:25.994Z,98266.47
2022-12-08T02:37:01.732Z,98262.75
2022-12-08T02:39:38.374Z,98259.19
2022-12-08T02:42:13.037Z,98261.91
2022-12-08T02:44:46.679Z,98264.59
2022-12-08T02:47:18.742Z,98269.94
2022-12-08T02:49:47.879Z,98262.03
2022-12-08T02:52:41.693Z,98267.13
2022-12-08T02:55:23.907Z,98262.59
2022-12-08T02:58:15.038Z,98260.38
2022-12-08T03:00:54.834Z,98256.66
2022-12-08T03:03:33.037Z,98256.88
2022-12-08T03:06:11.466Z,98255.94
2022-12-08T03:08:47.560Z,98257.13
2022-12-08T03:11:21.112Z,98250.00
2022-12-08T03:13:52.967Z,98243.69
2022-12-08T03:16:25.461Z,98243.00
2022-12-08T03:19:00.499Z,98254.66
2022-12-08T03:21:30.891Z,98242.03
2022-12-08T03:23:58.894Z,98227.78
2022-12-08T03:26:31.790Z,98230.31
2022-12-08T03:28:59.857Z,98228.75
2022-12-08T03:31:36.110Z,98228.25
2022-12-08T03:34:06.325Z,98225.22
2022-12-08T03:36:38.588Z,98226.78
2022-12-08T03:39:06.416Z,98227.50
2022-12-08T03:41:34.276Z,98227.13
2022-12-08T03:44:02.095Z,98224.31
2022-12-08T03:48:58.684Z,98220.81
2022-12-08T03:51:27.167Z,98213.91
2022-12-08T03:53:56.415Z,98210.16
2022-12-08T03:56:26.543Z,98214.84
2022-12-08T03:58:55.942Z,98215.88
2022-12-08T04:01:24.802Z,98205.59
2022-12-08T04:03:53.071Z,98202.00
2022-12-08T04:06:22.376Z,98203.59
2022-12-08T04:08:50.207Z,98198.03
2022-12-08T04:11:20.165Z,98201.63
2022-12-08T04:13:48.263Z,98200.59
2022-12-08T04:16:17.828Z,98196.06
2022-12-08T04:18:45.930Z,98196.75
2022-12-08T04:21:14.212Z,98192.19
2022-12-08T04:23:42.394Z,98186.47
2022-12-08T04:26:13.318Z,98190.28
2022-12-08T04:28:42.570Z,98194.19
2022-12-08T04:31:10.866Z,98193.69
2022-12-08T04:33:38.731Z,98191.75
2022-12-08T04:36:07.941Z,98190.28
2022-12-08T04:38:36.061Z,98194.59
2022-12-08T04:41:03.882Z,98194.25
2022-12-08T04:43:34.105Z,98199.34
2022-12-08T04:46:03.218Z,98185.16
2022-12-08T04:48:31.002Z,98183.34
2022-12-08T04:50:58.831Z,98174.63
2022-12-08T04:53:27.103Z,98177.03
2022-12-08T04:55:57.024Z,98175.09
2022-12-08T04:58:24.789Z,98176.63
2022-12-08T05:00:52.717Z,98172.25
2022-12-08T05:03:28.528Z,98169.28
2022-12-08T05:05:56.999Z,98168.44
2022-12-08T05:08:24.854Z,98168.81
2022-12-08T05:10:52.818Z,98174.78
2022-12-08T05:13:20.682Z,98169.06
2022-12-08T05:15:48.517Z,98164.44
2022-12-08T05:18:16.540Z,98170.50
2022-12-08T05:20:48.128Z,98163.22
2022-12-08T05:23:16.143Z,98159.38
2022-12-08T05:25:46.507Z,98151.00
2022-12-08T05:28:40.236Z,98157.78
2022-12-08T05:31:02.129Z,98167.81
2022-12-08T05:33:29.958Z,98164.31
2022-12-08T05:35:59.312Z,98163.97
2022-12-08T05:38:27.200Z,98168.81
2022-12-08T05:40:55.032Z,98163.75
2022-12-08T05:43:22.954Z,98163.63
2022-12-08T05:45:50.873Z,98164.75
2022-12-08T05:48:18.874Z,98171.41
2022-12-08T05:50:48.111Z,98164.31
2022-12-08T05:53:18.038Z,98169.53
2022-12-08T05:55:46.399Z,98162.50
2022-12-08T05:58:16.214Z,98171.19
2022-12-08T06:00:44.886Z,98155.84
2022-12-08T06:03:13.432Z,98162.88
2022-12-08T06:05:42.074Z,98164.38
2022-12-08T06:08:10.377Z,98160.81
2022-12-08T06:10:40.880Z,98155.63
2022-12-08T06:13:09.131Z,98153.13
2022-12-08T06:15:37.876Z,98159.50
2022-12-08T06:18:06.797Z,98157.91
2022-12-08T06:20:36.340Z,98156.25
2022-12-08T06:23:04.204Z,98152.47
2022-12-08T06:25:31.897Z,98162.03
2022-12-08T06:28:01.231Z,98155.44
2022-12-08T06:30:29.032Z,98158.16
2022-12-08T06:32:56.858Z,98163.53
2022-12-08T06:35:24.734Z,98154.50
2022-12-08T06:37:52.471Z,98162.75
2022-12-08T06:40:20.372Z,98159.88
2022-12-08T06:42:48.372Z,98158.31
2022-12-08T06:45:18.936Z,98161.81
2022-12-08T06:47:46.831Z,98159.53
2022-12-08T06:50:16.857Z,98161.69
2022-12-08T06:52:58.232Z,98159.75
2022-12-08T06:58:20.175Z,98165.13
2022-12-08T07:00:49.419Z,98167.91
2022-12-08T07:03:17.251Z,98167.59
2022-12-08T07:05:45.103Z,98168.25
2022-12-08T07:08:15.574Z,98165.97
2022-12-08T07:10:43.503Z,98168.59
2022-12-08T07:13:13.681Z,98166.94
2022-12-08T07:15:41.447Z,98174.31
2022-12-08T07:18:10.601Z,98163.56
2022-12-08T07:20:38.711Z,98172.66
2022-12-08T07:23:06.427Z,98171.72
2022-12-08T07:25:34.176Z,98170.44
2022-12-08T07:28:01.907Z,98165.31
2022-12-08T07:30:32.639Z,98170.34
2022-12-08T07:33:00.416Z,98172.56
2022-12-08T07:35:32.281Z,98175.81
2022-12-08T07:38:02.151Z,98174.75
2022-12-08T07:40:30.006Z,98169.28
2022-12-08T07:42:57.818Z,98177.72
2022-12-08T07:45:31.284Z,98174.13
2022-12-08T07:47:59.944Z,98170.63
2022-12-08T07:50:27.731Z,98167.75
2022-12-08T07:52:57.066Z,98174.88
2022-12-08T07:55:28.670Z,98164.00
2022-12-08T07:57:56.694Z,98161.84
2022-12-08T08:00:24.835Z,98165.75
2022-12-08T08:02:52.770Z,98159.88
2022-12-08T08:05:20.799Z,98162.28
2022-12-08T08:07:48.682Z,98157.72
2022-12-08T08:10:20.387Z,98153.75
2022-12-08T08:12:48.536Z,98150.03
2022-12-08T08:15:17.422Z,98147.88
2022-12-08T08:17:45.388Z,98148.97
2022-12-08T08:20:14.180Z,98143.47
2022-12-08T08:22:41.983Z,98143.31
2022-12-08T08:25:11.902Z,98144.81
2022-12-08T08:27:41.262Z,98142.19
2022-12-08T08:30:16.564Z,98142.63
2022-12-08T08:32:49.047Z,98140.19
2022-12-08T08:35:17.685Z,98146.34
2022-12-08T08:37:48.843Z,98141.69
2022-12-08T08:40:17.362Z,98144.56
2022-12-08T08:42:46.572Z,98148.06
2022-12-08T08:45:14.421Z,98148.06
2022-12-08T08:47:42.216Z,98143.13
2022-12-08T08:50:10.272Z,98141.28
2022-12-08T08:52:40.556Z,98146.41
2022-12-08T08:55:08.767Z,98142.50
2022-12-08T08:57:36.609Z,98149.69
2022-12-08T09:00:09.985Z,98142.91
2022-12-08T09:02:38.409Z,98137.69
2022-12-08T09:05:08.941Z,98135.16
2022-12-08T09:07:36.911Z,98133.13
2022-12-08T09:10:05.534Z,98137.13
2022-12-08T09:12:33.667Z,98136.06
2022-12-08T09:15:01.433Z,98129.66
2022-12-08T09:17:30.537Z,98129.88
2022-12-08T09:19:58.371Z,98127.91
2022-12-08T09:22:26.200Z,98125.38
2022-12-08T09:24:56.151Z,98122.31
2022-12-08T09:27:23.942Z,98122.16
2022-12-08T09:29:51.806Z,98116.53
2022-12-08T09:32:19.548Z,98116.31
2022-12-08T09:34:52.082Z,98122.84
2022-12-08T09:37:20.172Z,98118.72
2022-12-08T09:39:50.153Z,98119.06
2022-12-08T09:42:31.439Z,98121.56
2022-12-08T09:45:06.923Z,98117.66
2022-12-08T09:47:41.111Z,98116.19
2022-12-08T09:50:16.753Z,98118.66
2022-12-08T09:52:48.319Z,98116.25
2022-12-08T09:55:24.594Z,98106.69
2022-12-08T09:58:03.549Z,98109.09
2022-12-08T10:00:31.709Z,98101.59
2022-12-08T10:03:01.894Z,98101.13
2022-12-08T10:05:35.266Z,98094.59
2022-12-08T10:08:13.326Z,98093.03
2022-12-08T10:10:48.433Z,98093.94
2022-12-08T10:13:23.171Z,98085.53
2022-12-08T10:15:59.051Z,98087.88
2022-12-08T10:18:30.559Z,98069.53
2022-12-08T10:21:11.717Z,98075.63
2022-12-08T10:23:46.031Z,98071.22
2022-12-08T10:26:15.994Z,98064.22
2022-12-08T10:28:45.510Z,98064.44
2022-12-08T10:31:19.028Z,98058.66
2022-12-08T10:33:49.238Z,98065.47
2022-12-08T10:36:18.588Z,98063.16
2022-12-08T10:38:46.376Z,98052.16
2022-12-08T10:41:18.121Z,98055.03
2022-12-08T10:43:49.340Z,98047.28
2022-12-08T10:46:19.844Z,98055.25
2022-12-08T10:48:54.149Z,98052.41
2022-12-08T10:51:28.945Z,98049.16
2022-12-08T10:53:57.116Z,98043.66
2022-12-08T10:56:28.742Z,98041.22
2022-12-08T10:59:13.638Z,98036.75
2022-12-08T11:01:43.760Z,98034.97
2022-12-08T11:04:16.572Z,98026.66
2022-12-08T11:06:46.509Z,98017.66
2022-12-08T11:09:27.304Z,98020.38
2022-12-08T11:11:58.246Z,98004.34
2022-12-08T11:14:30.155Z,98004.69
2022-12-08T11:17:06.637Z,97999.03
2022-12-08T11:19:38.825Z,97993.78
2022-12-08T11:22:22.112Z,97988.41
2022-12-08T11:24:58.578Z,97986.44
2022-12-08T11:27:27.139Z,97992.34
2022-12-08T11:29:55.174Z,97983.16
2022-12-08T11:32:23.622Z,97983.59
2022-12-08T11:34:57.015Z,97980.22
2022-12-08T11:37:34.639Z,97985.09
2022-12-08T11:40:08.144Z,97981.19
2022-12-08T11:42:52.864Z,97978.69
2022-12-08T11:45:25.709Z,97975.44
2022-12-08T11:48:02.835Z,97971.88
2022-12-08T11:50:38.920Z,97972.28
2022-12-08T11:53:14.822Z,97970.56
2022-12-08T11:55:49.685Z,97967.09
2022-12-08T11:58:22.723Z,97964.94
2022-12-08T12:00:53.798Z,97957.50
2022-12-08T12:03:30.196Z,97955.44
2022-12-08T12:06:54.098Z,97965.06
2022-12-08T12:09:36.513Z,97962.72
2022-12-08T12:12:16.896Z,97957.59
2022-12-08T12:15:06.667Z,97960.03
2022-12-08T12:17:43.810Z,97959.25
2022-12-08T12:20:20.606Z,97947.72
2022-12-08T12:22:54.317Z,97950.63
2022-12-08T12:25:26.405Z,97942.88
2022-12-08T12:28:00.392Z,97954.19
2022-12-08T12:30:30.130Z,97950.81
2022-12-08T12:33:01.474Z,97944.94
2022-12-08T12:35:34.720Z,97941.28
2022-12-08T12:38:27.351Z,97952.25
2022-12-08T12:41:03.149Z,97944.13
2022-12-08T12:43:36.090Z,97933.59
2022-12-08T12:46:42.987Z,97933.00
2022-12-08T12:49:48.691Z,97927.94
2022-12-08T12:52:48.574Z,97929.31
2022-12-08T12:55:52.307Z,97924.72
2022-12-08T12:58:40.923Z,97919.16
2022-12-08T13:01:52.044Z,97915.06
2022-12-08T13:04:20.519Z,97914.19
2022-12-08T13:06:52.230Z,97913.72
2022-12-08T13:09:22.673Z,97910.41
2022-12-08T13:11:53.639Z,97916.56
2022-12-08T13:14:29.971Z,97913.94
2022-12-08T13:17:02.374Z,97914.88
2022-12-08T13:19:34.395Z,97917.78
2022-12-08T13:22:02.457Z,97915.28
2022-12-08T13:24:34.813Z,97913.41
2022-12-08T13:27:34.014Z,97912.66
2022-12-08T13:30:42.823Z,97910.19
2022-12-08T13:33:18.546Z,97921.94
2022-12-08T13:35:56.220Z,97915.63
2022-12-08T13:38:29.084Z,97914.16
2022-12-08T13:40:58.014Z,97904.66
2022-12-08T13:43:51.045Z,97903.97
2022-12-08T13:56:43.385Z,97905.03
2022-12-08T13:58:06.081Z,97902.41
2022-12-08T14:00:34.165Z,97898.53
2022-12-08T14:03:03.680Z,97890.88
2022-12-08T14:06:10.318Z,97900.59
2022-12-08T14:11:34.545Z,97895.47
2022-12-08T14:14:09.827Z,97902.34
2022-12-08T14:16:40.920Z,97899.59
2022-12-08T14:19:18.874Z,97898.56
2022-12-08T14:21:55.080Z,97903.16
2022-12-08T14:24:24.055Z,97899.13
2022-12-08T14:26:54.642Z,97897.38
2022-12-08T14:29:37.072Z,97896.97
2022-12-08T14:32:05.683Z,97901.78
2022-12-08T14:34:40.504Z,97899.72
2022-12-08T14:37:13.753Z,97901.31
2022-12-08T14:39:41.933Z,97897.47
2022-12-08T14:42:23.423Z,97905.38
2022-12-08T14:44:59.255Z,97905.38
2022-12-08T14:47:30.989Z,97906.63
2022-12-08T14:50:03.502Z,97901.78
2022-12-08T14:52:34.096Z,97901.97
2022-12-08T14:55:02.000Z,97893.84
2022-12-08T14:57:36.239Z,97895.81
2022-12-08T15:00:12.307Z,97893.78
2022-12-08T15:02:46.576Z,97895.47
2022-12-08T15:05:20.059Z,97892.31
2022-12-08T15:07:50.874Z,97903.72
2022-12-08T15:10:26.345Z,97897.94
2022-12-08T15:13:02.611Z,97894.78
2022-12-08T15:15:31.869Z,97890.13
2022-12-08T15:18:03.626Z,97902.09
2022-12-08T15:20:44.018Z,97900.41
2022-12-08T15:23:22.289Z,97891.63
2022-12-08T15:25:50.790Z,97893.97
2022-12-08T15:28:22.041Z,97897.06
2022-12-08T15:30:52.692Z,97892.16
2022-12-08T15:33:20.843Z,97889.34
2022-12-08T15:35:52.858Z,97890.81
2022-12-08T15:38:24.626Z,97891.22
2022-12-08T15:40:53.004Z,97892.72
2022-12-08T15:43:20.973Z,97884.84
2022-12-08T15:45:58.446Z,97885.69
2022-12-08T15:48:29.075Z,97886.41
2022-12-08T15:51:00.688Z,97894.28
2022-12-08T15:53:28.531Z,97892.06
2022-12-08T15:58:59.918Z,97888.41
2022-12-08T16:01:28.090Z,97884.00
2022-12-08T16:09:39.393Z,97878.69
2022-12-08T16:12:48.094Z,97875.03
2022-12-08T16:18:05.866Z,97861.75
2022-12-08T16:23:41.514Z,97855.78
2022-12-08T16:26:26.117Z,97858.75
2022-12-08T16:29:00.978Z,97863.53
2022-12-08T16:31:28.920Z,97862.97
2022-12-08T16:33:56.805Z,97859.88
2022-12-08T16:36:26.750Z,97862.13
2022-12-08T16:38:55.942Z,97861.38
2022-12-08T16:41:41.177Z,97854.44
2022-12-08T16:44:09.027Z,97857.34
2022-12-08T16:46:37.197Z,97852.78
2022-12-08T16:49:08.811Z,97852.69
2022-12-08T16:51:36.677Z,97852.47
2022-12-08T16:54:05.961Z,97847.88
2022-12-08T16:56:33.909Z,97847.47
2022-12-08T16:59:02.474Z,97852.03
2022-12-08T17:01:31.248Z,97859.31
2022-12-08T17:04:31.084Z,97861.75
2022-12-08T17:06:47.190Z,97864.28
2022-12-08T17:09:17.512Z,97860.56
2022-12-08T17:11:45.696Z,97869.25
2022-12-08T17:14:14.018Z,97866.75
2022-12-08T17:16:42.098Z,97860.19
2022-12-08T17:19:10.108Z,97857.22
2022-12-08T17:21:37.977Z,97851.22
2022-12-08T17:24:06.388Z,97859.16
2022-12-08T17:26:35.720Z,97862.75
2022-12-08T17:29:06.114Z,97856.19
2022-12-08T17:31:34.488Z,97859.03
2022-12-08T17:34:02.951Z,97867.59
2022-12-08T17:36:30.799Z,97859.19
2022-12-08T17:39:01.083Z,97865.09
2022-12-08T17:41:29.631Z,97872.56
2022-12-08T17:43:58.978Z,97867.03
2022-12-08T17:46:26.943Z,97869.13
2022-12-08T17:48:55.076Z,97866.97
2022-12-08T17:51:22.853Z,97870.63
2022-12-08T17:53:51.259Z,97855.38
2022-12-08T17:56:20.892Z,97859.03
2022-12-08T17:58:54.228Z,97859.97
2022-12-08T18:01:24.432Z,97865.56
2022-12-08T18:03:52.777Z,97872.47
2022-12-08T18:06:20.631Z,97875.84
2022-12-08T18:08:48.694Z,97880.06
2022-12-08T18:11:19.331Z,97876.03
2022-12-08T18:13:48.195Z,97878.72
2022-12-08T18:16:17.591Z,97883.22
2022-12-08T18:18:46.755Z,97879.22
2022-12-08T18:21:21.471Z,97878.56
2022-12-08T18:23:51.421Z,97876.78
2022-12-08T18:26:19.432Z,97871.84
2022-12-08T18:28:50.074Z,97865.41
2022-12-08T18:31:20.596Z,97861.63
2022-12-08T18:33:50.801Z,97861.75
2022-12-08T18:36:21.649Z,97861.66
2022-12-08T18:38:50.016Z,97862.19
2022-12-08T18:41:20.031Z,97859.13
2022-12-08T18:43:47.913Z,97863.06
2022-12-08T18:46:17.547Z,97853.06
2022-12-08T18:48:47.310Z,97858.78
2022-12-08T18:51:20.914Z,97852.59
2022-12-08T18:53:49.401Z,97858.97
2022-12-08T18:56:25.060Z,97860.19
2022-12-08T18:58:52.983Z,97858.97
2022-12-08T19:01:20.867Z,97861.63
2022-12-08T19:06:40.196Z,97844.53
2022-12-08T19:09:12.566Z,97837.47
2022-12-08T19:11:40.585Z,97847.94
2022-12-08T19:14:09.269Z,97849.22
2022-12-08T19:16:37.174Z,97851.56
2022-12-08T19:19:05.565Z,97850.06
2022-12-08T19:21:35.620Z,97847.97
2022-12-08T19:24:05.335Z,97848.34
2022-12-08T19:26:33.118Z,97843.25
2022-12-08T19:29:02.981Z,97839.03
2022-12-08T19:31:31.013Z,97835.66
2022-12-08T19:33:58.812Z,97838.63
2022-12-08T19:36:27.656Z,97838.84
2022-12-08T19:39:12.865Z,97840.13
2022-12-08T19:41:59.368Z,97841.00
2022-12-08T19:44:47.311Z,97840.84
2022-12-08T19:47:15.424Z,97835.00
2022-12-08T19:49:43.566Z,97837.47
2022-12-08T19:52:13.684Z,97833.44
2022-12-08T19:54:47.103Z,97835.84
2022-12-08T19:57:20.310Z,97832.59
2022-12-08T19:59:51.740Z,97826.19
2022-12-08T20:02:24.232Z,97829.03
2022-12-08T20:04:52.154Z,97827.16
2022-12-08T20:07:20.247Z,97825.91
2022-12-08T20:09:48.162Z,97824.28
2022-12-08T20:12:16.182Z,97820.44
2022-12-08T20:14:46.261Z,97820.50
2022-12-08T20:17:14.278Z,97826.66
2022-12-08T20:19:42.248Z,97823.00
2022-12-08T20:22:12.377Z,97824.59
2022-12-08T20:24:40.169Z,97828.19
2022-12-08T20:27:08.009Z,97832.06
2022-12-08T20:29:35.876Z,97833.41
2022-12-08T20:32:05.471Z,97834.34
2022-12-08T20:34:34.558Z,97834.34
2022-12-08T20:37:04.796Z,97835.75
2022-12-08T20:39:32.622Z,97831.97
2022-12-08T20:42:00.547Z,97829.81
2022-12-08T20:44:29.342Z,97831.00
2022-12-08T20:46:57.576Z,97824.66
2022-12-08T20:49:32.784Z,97835.84
2022-12-08T20:52:02.292Z,97837.56
2022-12-08T20:54:30.104Z,97836.75
2022-12-08T20:56:58.138Z,97834.25
2022-12-08T20:59:27.010Z,97835.84
2022-12-08T21:01:55.356Z,97831.22
2022-12-08T21:04:24.059Z,97828.19
2022-12-08T21:06:56.639Z,97826.00
2022-12-08T21:09:24.791Z,97830.69
2022-12-08T21:11:54.920Z,97823.56
2022-12-08T21:14:22.768Z,97827.81
2022-12-08T21:16:51.065Z,97831.34
2022-12-08T21:19:21.710Z,97826.75
2022-12-08T21:21:50.782Z,97821.88
2022-12-08T21:24:20.671Z,97830.13
2022-12-08T21:26:48.927Z,97828.22
2022-12-08T21:29:16.996Z,97835.41
2022-12-08T21:31:44.995Z,97831.00
2022-12-08T21:34:15.021Z,97829.03
2022-12-08T21:36:42.850Z,97832.66
2022-12-08T21:39:12.933Z,97823.53
2022-12-08T21:41:59.605Z,97821.69
2022-12-08T21:44:27.772Z,97821.50
2022-12-08T21:46:55.738Z,97821.91
2022-12-08T21:49:23.572Z,97827.63
2022-12-08T21:51:51.645Z,97834.44
2022-12-08T21:54:19.687Z,97827.72
2022-12-08T21:56:51.669Z,97832.53
2022-12-08T21:59:21.956Z,97834.03
2022-12-08T22:01:49.975Z,97830.81
2022-12-08T22:04:21.340Z,97829.47
2022-12-08T22:06:51.694Z,97831.47
2022-12-08T22:09:19.661Z,97826.31
2022-12-08T22:11:47.888Z,97823.38
2022-12-08T22:14:17.122Z,97825.41
2022-12-08T22:16:45.322Z,97827.03
2022-12-08T22:19:13.545Z,97832.47
2022-12-08T22:21:41.588Z,97828.84
2022-12-08T22:24:10.360Z,97833.16
2022-12-08T22:26:38.309Z,97832.00
2022-12-08T22:29:06.345Z,97829.03
2022-12-08T22:31:35.779Z,97828.94
2022-12-08T22:34:03.812Z,97839.28
2022-12-08T22:36:31.830Z,97825.19
2022-12-08T22:38:59.626Z,97829.75
2022-12-08T22:41:27.454Z,97824.00
2022-12-08T22:43:55.579Z,97821.53
2022-12-08T22:46:25.958Z,97821.47
2022-12-08T22:48:55.868Z,97822.28
2022-12-08T22:51:23.790Z,97815.75
2022-12-08T22:53:52.158Z,97806.09
2022-12-08T22:56:20.311Z,97811.06
2022-12-08T22:58:51.241Z,97817.06
2022-12-08T23:01:26.667Z,97806.34
2022-12-08T23:03:56.572Z,97808.03
2022-12-08T23:06:25.065Z,97804.72
2022-12-08T23:08:54.154Z,97805.53
2022-12-08T23:11:23.940Z,97802.94
2022-12-08T23:13:56.251Z,97787.28
2022-12-08T23:16:24.521Z,97795.31
2022-12-08T23:18:52.346Z,97791.06
2022-12-08T23:21:23.981Z,97793.19
2022-12-08T23:23:52.001Z,97793.47
2022-12-08T23:26:23.365Z,97789.47
2022-12-08T23:28:51.902Z,97787.47
2022-12-08T23:31:20.529Z,97790.78
2022-12-08T23:33:48.690Z,97788.75
2022-12-08T23:36:17.863Z,97785.91
2022-12-08T23:38:50.005Z,97775.75
2022-12-08T23:41:17.873Z,97775.03
2022-12-08T23:43:46.956Z,97776.66
2022-12-08T23:46:14.992Z,97770.88
2022-12-08T23:48:45.563Z,97764.69
2022-12-08T23:51:14.093Z,97761.13
2022-12-08T23:53:42.724Z,97759.28
2022-12-08T23:56:14.438Z,97752.91
2022-12-08T23:58:43.235Z,97750.19
